Time;durP1;ratioP1;P1;durP2;ratioP2;P2;SDS_P1;SDS_P2;PMS_P1;PMS_P2;Temp;Humidity;BMP_temperature;BMP_pressure;BME280_temperature;BME280_humidity;BME280_pressure;Samples;Min_cycle;Max_cycle;Signal;HPM_P1;HPM_P2
2021/10/17 00:00:10;;;;;;;12.53;8.48;;;;;;;8.68;79.33;98008.55;1769947;81;21033;-77
2021/10/17 00:02:40;;;;;;;14.07;8.35;;;;;;;8.63;79.43;98007.77;1769641;81;21002;-76
2021/10/17 00:05:17;;;;;;;12.90;8.50;;;;;;;8.58;79.69;98002.57;1769962;81;21569;-76
2021/10/17 00:07:45;;;;;;;12.80;8.75;;;;;;;8.56;79.92;98005.70;1770127;81;20978;-77
2021/10/17 00:10:19;;;;;;;12.00;8.13;;;;;;;8.53;79.82;98007.97;1769983;81;21041;-77
2021/10/17 00:12:46;;;;;;;13.83;7.50;;;;;;;8.52;79.94;98007.96;1769587;81;21371;-77
2021/10/17 00:15:18;;;;;;;11.12;7.80;;;;;;;8.48;80.45;98011.13;1769603;81;21105;-76
2021/10/17 00:17:45;;;;;;;11.73;8.08;;;;;;;8.47;80.01;98009.36;1769579;81;21054;-77
2021/10/17 00:20:15;;;;;;;10.95;7.55;;;;;;;8.43;79.99;98010.35;1763734;81;21419;-76
2021/10/17 00:22:42;;;;;;;13.53;7.35;;;;;;;8.40;80.25;98009.08;1761423;81;21010;-77
2021/10/17 00:25:10;;;;;;;12.30;7.17;;;;;;;8.39;80.61;98007.34;1761357;81;21850;-76
2021/10/17 00:27:38;;;;;;;11.93;7.12;;;;;;;8.40;80.34;98011.72;1761415;81;21014;-77
2021/10/17 00:30:09;;;;;;;13.18;8.68;;;;;;;8.38;80.84;98011.75;1761452;81;21112;-76
2021/10/17 00:32:38;;;;;;;10.80;6.55;;;;;;;8.39;80.79;98015.27;1761254;81;21105;-77
2021/10/17 00:35:08;;;;;;;11.55;7.03;;;;;;;8.39;80.72;98011.31;1761196;81;21073;-77
2021/10/17 00:37:36;;;;;;;12.85;7.92;;;;;;;8.38;80.82;98009.11;1761377;81;21531;-77
2021/10/17 00:40:06;;;;;;;11.00;7.10;;;;;;;8.38;80.90;98015.71;1761349;81;21475;-77
2021/10/17 00:42:33;;;;;;;12.03;7.53;;;;;;;8.37;80.78;98010.45;1761821;81;20993;-77
2021/10/17 00:45:09;;;;;;;9.85;7.20;;;;;;;8.35;81.02;98011.80;1762094;81;21097;-77
2021/10/17 00:47:37;;;;;;;11.35;7.58;;;;;;;8.35;81.32;98013.59;1761851;81;21013;-77
2021/10/17 00:50:06;;;;;;;13.88;8.15;;;;;;;8.35;81.50;98013.59;1761663;81;21020;-77
2021/10/17 00:52:35;;;;;;;10.93;7.40;;;;;;;8.35;81.08;98017.55;1761261;81;21057;-76
2021/10/17 00:55:07;;;;;;;11.12;7.22;;;;;;;8.34;81.13;98015.82;1761094;81;21459;-77
2021/10/17 00:57:35;;;;;;;11.45;7.50;;;;;;;8.32;81.05;98013.20;1761242;81;21061;-77
2021/10/17 01:00:02;;;;;;;9.00;7.03;;;;;;;8.30;81.33;98013.23;1761313;81;21022;-77
2021/10/17 01:02:29;;;;;;;11.28;8.33;;;;;;;8.30;81.47;98009.70;1761153;81;21025;-77
2021/10/17 01:04:56;;;;;;;11.22;6.92;;;;;;;8.29;81.22;98007.97;1761276;81;20982;-77
2021/10/17 01:07:23;;;;;;;12.40;7.17;;;;;;;8.27;81.20;98007.14;1735590;81;20998;-77
2021/10/17 01:09:50;;;;;;;12.55;7.90;;;;;;;8.25;81.38;98010.25;1761046;80;21026;-77
2021/10/17 01:12:18;;;;;;;10.40;7.17;;;;;;;8.25;81.52;98003.20;1761216;81;21455;-77
2021/10/17 01:14:45;;;;;;;11.00;7.42;;;;;;;8.25;81.66;98004.97;1761076;81;21053;-77
2021/10/17 01:17:12;;;;;;;11.00;6.60;;;;;;;8.27;81.72;98005.83;1761134;81;21018;-76
2021/10/17 01:19:46;;;;;;;11.20;7.15;;;;;;;8.31;81.43;98008.36;1763901;81;21135;-76
2021/10/17 01:22:19;;;;;;;10.58;6.75;;;;;;;8.31;81.71;98008.36;1769135;81;21017;-77
2021/10/17 01:24:46;;;;;;;9.40;6.58;;;;;;;8.36;82.14;98004.76;1769319;81;21057;-77
2021/10/17 01:27:13;;;;;;;12.58;6.53;;;;;;;8.41;82.43;98001.57;1769249;81;21009;-77
2021/10/17 01:29:39;;;;;;;11.65;7.08;;;;;;;8.46;82.44;97997.06;1769528;81;21044;-77
2021/10/17 01:32:10;;;;;;;9.53;7.03;;;;;;;8.49;82.41;97998.33;1769583;81;21045;-77
2021/10/17 01:34:36;;;;;;;9.25;6.72;;;;;;;8.52;82.57;97998.72;1769343;81;21021;-77
2021/10/17 01:37:03;;;;;;;10.40;6.70;;;;;;;8.58;82.77;97997.28;1769222;81;21016;-77
2021/10/17 01:39:30;;;;;;;11.55;7.97;;;;;;;8.63;82.79;97999.84;1769297;81;21029;-77
2021/10/17 01:41:56;;;;;;;16.52;8.60;;;;;;;8.68;82.94;97997.97;1769392;81;21002;-77
2021/10/17 01:44:32;;;;;;;11.63;8.08;;;;;;;8.70;83.24;98003.64;1769300;81;21084;-77
2021/10/17 01:47:00;;;;;;;12.30;7.25;;;;;;;8.71;82.96;98003.17;1769495;81;20997;-77
2021/10/17 01:49:28;;;;;;;8.65;6.35;;;;;;;8.76;82.72;98003.09;1769107;81;21459;-77
2021/10/17 01:51:55;;;;;;;10.98;6.85;;;;;;;8.81;82.48;98000.73;1769060;81;20988;-77
2021/10/17 01:54:23;;;;;;;10.10;6.90;;;;;;;8.86;82.46;97999.33;1769248;81;21021;-77
2021/10/17 01:56:50;;;;;;;11.30;6.95;;;;;;;8.92;82.32;98007.11;1769242;81;21064;-77
2021/10/17 01:59:17;;;;;;;12.23;6.97;;;;;;;8.94;82.27;97989.91;1769191;81;21041;-77
2021/10/17 02:01:45;;;;;;;11.97;6.83;;;;;;;8.95;82.14;97996.48;1767433;81;21025;-77
2021/10/17 02:04:12;;;;;;;11.22;7.50;;;;;;;8.90;81.73;98001.45;1769160;81;21467;-77
2021/10/17 02:06:39;;;;;;;11.73;7.42;;;;;;;8.86;81.74;98001.97;1769291;81;21101;-76
2021/10/17 02:09:06;;;;;;;9.55;7.03;;;;;;;8.82;81.61;98001.62;1769367;81;21021;-77
2021/10/17 02:11:32;;;;;;;12.65;8.15;;;;;;;8.77;81.56;97999.53;1769140;81;20974;-77
2021/10/17 02:13:59;;;;;;;12.28;8.08;;;;;;;8.71;81.54;97998.77;1769365;81;21121;-77
2021/10/17 02:16:26;;;;;;;15.20;8.83;;;;;;;8.68;81.56;98000.14;1769308;81;20970;-77
2021/10/17 02:18:52;;;;;;;16.57;9.58;;;;;;;8.63;81.35;97994.56;1769300;81;21055;-77
2021/10/17 02:21:19;;;;;;;15.95;9.15;;;;;;;8.55;81.18;97993.38;1761814;81;21076;-77
2021/10/17 02:23:48;;;;;;;13.95;8.50;;;;;;;8.50;81.24;97993.89;1761161;81;20967;-77
2021/10/17 02:26:15;;;;;;;12.03;8.38;;;;;;;8.48;81.54;97998.36;1761102;81;21053;-77
2021/10/17 02:28:43;;;;;;;12.55;8.90;;;;;;;8.47;81.65;97996.63;1704566;81;21093;-77
2021/10/17 02:31:09;;;;;;;14.38;9.20;;;;;;;8.45;81.81;97995.33;1761218;81;21009;-77
2021/10/17 02:33:39;;;;;;;14.73;9.03;;;;;;;8.42;81.44;97992.30;1760493;81;21483;-77
2021/10/17 02:36:07;;;;;;;12.75;9.00;;;;;;;8.38;81.44;97999.87;1761058;81;21002;-78
2021/10/17 02:38:36;;;;;;;19.32;9.68;;;;;;;8.36;81.38;97999.48;1761163;81;21030;-78
2021/10/17 02:41:03;;;;;;;14.18;9.63;;;;;;;8.34;81.47;97993.38;1761187;81;21006;-78
2021/10/17 02:43:30;;;;;;;11.75;8.68;;;;;;;8.32;81.41;97999.53;1761155;81;21045;-77
2021/10/17 02:45:56;;;;;;;12.98;9.38;;;;;;;8.30;81.72;98008.38;1761274;81;21033;-77
2021/10/17 02:48:23;;;;;;;14.20;8.68;;;;;;;8.30;81.90;98005.74;1761037;81;21514;-77
2021/10/17 02:50:50;;;;;;;15.05;9.65;;;;;;;8.30;81.94;98008.38;1761091;81;21037;-77
2021/10/17 02:53:17;;;;;;;14.30;9.65;;;;;;;8.26;81.92;98001.45;1761340;81;21466;-77
2021/10/17 02:55:44;;;;;;;16.60;8.50;;;;;;;8.23;82.67;98006.78;1761213;81;21033;-77
2021/10/17 02:58:10;;;;;;;13.38;8.55;;;;;;;8.21;82.68;98007.28;1761345;81;21018;-77
2021/10/17 03:00:37;;;;;;;11.43;7.78;;;;;;;8.20;82.17;98012.99;1761127;81;21010;-77
2021/10/17 03:03:04;;;;;;;12.80;7.95;;;;;;;8.19;82.99;98009.94;1761268;81;21069;-77
2021/10/17 03:05:33;;;;;;;13.83;6.87;;;;;;;8.20;82.67;98006.39;1761261;81;21010;-77
2021/10/17 03:08:01;;;;;;;12.35;6.65;;;;;;;8.20;82.93;98012.99;1761305;81;21018;-76
2021/10/17 03:10:28;;;;;;;10.98;7.83;;;;;;;8.19;82.55;98013.44;1761407;81;21002;-77
2021/10/17 03:12:54;;;;;;;12.93;7.65;;;;;;;8.21;82.49;98016.52;1761533;81;21033;-77
2021/10/17 03:15:21;;;;;;;9.78;6.62;;;;;;;8.21;82.46;98013.88;1761175;81;21041;-76
2021/10/17 03:17:48;;;;;;;10.45;6.20;;;;;;;8.23;82.34;98010.74;1761418;81;21420;-76
2021/10/17 03:20:15;;;;;;;10.70;6.42;;;;;;;8.22;83.00;98008.54;1761202;81;21479;-77
2021/10/17 03:22:43;;;;;;;8.00;5.92;;;;;;;8.24;82.55;98016.00;1761132;81;21037;-77
2021/10/17 03:25:10;;;;;;;9.93;6.30;;;;;;;8.26;82.39;98012.02;1761389;81;21014;-77
2021/10/17 03:27:37;;;;;;;8.80;6.45;;;;;;;8.27;82.52;98017.70;1761405;81;21023;-77
2021/10/17 03:30:06;;;;;;;9.73;6.37;;;;;;;8.27;82.44;98019.87;1761178;81;21017;-77
2021/10/17 03:32:33;;;;;;;11.63;6.00;;;;;;;8.27;82.61;98021.20;1761296;81;21014;-77
2021/10/17 03:35:03;;;;;;;10.03;5.97;;;;;;;8.27;82.67;98021.67;1761261;81;21065;-77
2021/10/17 03:37:33;;;;;;;9.10;6.47;;;;;;;8.26;82.61;98019.47;1761232;81;21045;-77
2021/10/17 03:40:01;;;;;;;13.55;6.75;;;;;;;8.23;83.75;98022.62;1761359;81;21025;-77
2021/10/17 03:42:29;;;;;;;7.85;5.58;;;;;;;8.18;84.31;98017.45;1761141;81;21495;-77
2021/10/17 03:44:57;;;;;;;9.28;5.95;;;;;;;8.15;83.48;98020.14;1761382;81;20985;-77
2021/10/17 03:47:24;;;;;;;8.65;5.72;;;;;;;8.12;83.70;98019.75;1761305;81;21072;-77
2021/10/17 03:49:53;;;;;;;13.50;5.87;;;;;;;8.15;83.42;98021.45;1761295;81;21009;-77
2021/10/17 03:52:21;;;;;;;9.70;6.67;;;;;;;8.17;84.10;98020.52;1760566;81;21026;-77
2021/10/17 03:54:48;;;;;;;8.10;6.25;;;;;;;8.18;84.48;98025.37;1761169;81;21010;-77
2021/10/17 03:57:14;;;;;;;10.08;5.90;;;;;;;8.17;84.42;98020.96;1761382;81;20998;-77
2021/10/17 03:59:41;;;;;;;9.08;6.42;;;;;;;8.21;84.88;98024.44;1761319;81;21021;-77
2021/10/17 04:02:09;;;;;;;8.98;5.58;;;;;;;8.25;84.41;98022.13;1761222;81;20986;-77
2021/10/17 04:04:35;;;;;;;10.05;6.40;;;;;;;8.30;84.05;98021.58;1761160;81;21459;-77
2021/10/17 04:07:05;;;;;;;9.78;6.45;;;;;;;8.36;84.03;98019.28;1761261;81;21014;-77
2021/10/17 04:09:34;;;;;;;12.60;7.08;;;;;;;8.40;83.98;98022.28;1761156;81;21077;-77
2021/10/17 04:12:00;;;;;;;10.88;6.90;;;;;;;8.44;84.06;98023.97;1761147;81;21009;-76
2021/10/17 04:14:29;;;;;;;10.63;6.78;;;;;;;8.49;83.95;98025.18;1761292;81;21039;-77
2021/10/17 04:16:55;;;;;;;13.40;8.33;;;;;;;8.53;84.03;98019.85;1761377;81;21076;-77
2021/10/17 04:19:22;;;;;;;13.48;8.08;;;;;;;8.56;83.89;98030.33;1761308;81;20986;-77
2021/10/17 04:21:48;;;;;;;14.07;8.30;;;;;;;8.60;83.82;98027.20;1768193;81;21032;-77
2021/10/17 04:24:16;;;;;;;15.13;9.83;;;;;;;8.61;83.72;98031.58;1769356;81;20982;-77
2021/10/17 04:26:43;;;;;;;14.47;10.65;;;;;;;8.58;83.02;98030.31;1769360;81;21432;-77
2021/10/17 04:29:11;;;;;;;15.45;10.53;;;;;;;8.60;82.72;98035.13;1769329;81;21021;-77
2021/10/17 04:31:38;;;;;;;16.70;10.82;;;;;;;8.62;82.98;98036.39;1769125;81;21014;-77
2021/10/17 04:34:05;;;;;;;17.20;10.40;;;;;;;8.61;82.76;98033.34;1769373;81;21016;-77
2021/10/17 04:36:31;;;;;;;17.07;10.88;;;;;;;8.57;82.86;98036.06;1769305;81;21061;-77
2021/10/17 04:38:58;;;;;;;18.37;11.22;;;;;;;8.56;82.95;98029.48;1769282;81;20949;-77
2021/10/17 04:41:25;;;;;;;14.53;10.80;;;;;;;8.53;82.60;98033.50;1769271;81;21490;-75
2021/10/17 04:43:52;;;;;;;16.52;12.10;;;;;;;8.47;82.43;98044.16;1769255;81;21017;-75
2021/10/17 04:46:19;;;;;;;16.65;10.45;;;;;;;8.40;82.54;98040.77;1769292;81;21037;-75
2021/10/17 04:48:45;;;;;;;16.23;11.05;;;;;;;8.36;82.36;98035.13;1769384;81;21025;-77
2021/10/17 04:51:11;;;;;;;18.62;10.53;;;;;;;8.30;82.72;98037.43;1769387;81;21439;-77
2021/10/17 04:53:38;;;;;;;16.50;10.45;;;;;;;8.28;83.00;98033.96;1769417;81;20997;-77
2021/10/17 04:56:05;;;;;;;14.98;9.75;;;;;;;8.27;83.06;98041.00;1769402;81;21087;-77
2021/10/17 04:58:31;;;;;;;19.35;10.72;;;;;;;8.25;83.06;98038.86;1769422;81;21379;-77
2021/10/17 05:01:00;;;;;;;16.82;10.58;;;;;;;8.21;82.99;98037.16;1769160;81;20966;-77
2021/10/17 05:03:27;;;;;;;15.98;10.15;;;;;;;8.19;83.03;98033.70;1769449;81;21035;-77
2021/10/17 05:05:54;;;;;;;17.90;11.18;;;;;;;8.15;82.86;98047.86;1738991;81;21473;-77
2021/10/17 05:08:21;;;;;;;16.27;9.95;;;;;;;8.09;82.89;98046.19;1769301;81;20998;-77
2021/10/17 05:10:48;;;;;;;15.05;10.05;;;;;;;8.05;83.24;98046.70;1769414;81;21041;-77
2021/10/17 05:13:14;;;;;;;15.23;9.98;;;;;;;8.02;83.19;98050.70;1769474;81;21021;-76
2021/10/17 05:15:41;;;;;;;16.42;9.53;;;;;;;8.00;83.06;98057.80;1769168;81;21001;-77
2021/10/17 05:18:08;;;;;;;17.40;11.25;;;;;;;7.96;83.29;98061.38;1769377;81;20970;-77
2021/10/17 05:20:36;;;;;;;21.95;11.83;;;;;;;7.92;83.13;98059.69;1768828;81;21474;-77
2021/10/17 05:23:07;;;;;;;19.27;12.25;;;;;;;7.88;83.16;98061.95;1769292;81;21538;-77
2021/10/17 05:25:36;;;;;;;18.62;11.68;;;;;;;7.86;83.25;98062.02;1769361;81;21037;-77
2021/10/17 05:28:03;;;;;;;19.20;12.53;;;;;;;7.83;83.34;98061.17;1769115;81;21021;-77
2021/10/17 05:30:32;;;;;;;96.90;58.25;;;;;;;7.82;83.44;98069.98;1769250;81;21053;-77
2021/10/17 05:32:59;;;;;;;36.20;20.20;;;;;;;7.80;83.46;98068.69;1769238;81;20985;-77
2021/10/17 05:35:27;;;;;;;18.45;11.63;;;;;;;7.76;83.46;98070.52;1769044;81;21065;-77
2021/10/17 05:37:54;;;;;;;17.40;11.08;;;;;;;7.75;83.42;98071.42;1769307;81;21040;-77
2021/10/17 05:40:21;;;;;;;20.23;12.78;;;;;;;7.74;83.85;98076.72;1769207;81;21006;-77
2021/10/17 05:42:48;;;;;;;19.45;11.78;;;;;;;7.70;83.69;98075.91;1769317;81;20982;-77
2021/10/17 05:45:16;;;;;;;20.08;12.95;;;;;;;7.66;83.86;98076.84;1769245;81;20974;-77
2021/10/17 05:47:43;;;;;;;21.02;13.13;;;;;;;7.63;83.79;98079.52;1769338;81;20989;-78
2021/10/17 05:50:10;;;;;;;21.10;12.65;;;;;;;7.60;83.97;98079.59;1769084;81;21071;-77
2021/10/17 05:52:37;;;;;;;18.95;12.28;;;;;;;7.57;84.23;98091.50;1769314;81;20977;-77
2021/10/17 05:55:04;;;;;;;19.57;12.20;;;;;;;7.55;84.17;98094.63;1769269;81;21029;-77
2021/10/17 05:57:36;;;;;;;16.48;12.07;;;;;;;7.50;84.00;98087.65;1769299;81;21410;-77
2021/10/17 06:00:02;;;;;;;21.68;12.45;;;;;;;7.54;84.01;98093.74;1769325;81;21483;-77
2021/10/17 06:02:29;;;;;;;18.82;12.10;;;;;;;7.55;84.14;98091.52;1769512;81;21400;-77
2021/10/17 06:04:58;;;;;;;17.67;12.05;;;;;;;7.56;84.44;98090.62;1769239;81;21049;-77
2021/10/17 06:07:25;;;;;;;20.05;11.85;;;;;;;7.58;84.42;98091.48;1769320;81;21435;-77
2021/10/17 06:09:52;;;;;;;16.97;11.25;;;;;;;7.62;84.69;98091.86;1769333;81;21006;-77
2021/10/17 06:12:21;;;;;;;19.02;11.25;;;;;;;7.66;84.84;98094.87;1769207;81;20983;-77
2021/10/17 06:14:48;;;;;;;16.70;11.60;;;;;;;7.71;84.91;98096.55;1769194;81;21018;-77
2021/10/17 06:17:14;;;;;;;17.65;10.30;;;;;;;7.79;85.38;98097.30;1769334;81;21490;-77
2021/10/17 06:19:41;;;;;;;17.67;10.78;;;;;;;7.91;85.58;98097.11;1769350;81;21005;-77
2021/10/17 06:22:08;;;;;;;16.23;10.32;;;;;;;8.02;85.53;98100.85;1762894;81;21126;-77
2021/10/17 06:24:39;;;;;;;17.42;10.03;;;;;;;8.14;85.57;98097.13;1758546;81;21057;-78
2021/10/17 06:27:06;;;;;;;15.53;10.88;;;;;;;8.21;85.12;98101.85;1761477;81;21487;-77
2021/10/17 06:29:33;;;;;;;18.10;11.22;;;;;;;8.26;85.33;98097.36;1761600;81;21455;-77
2021/10/17 06:32:02;;;;;;;15.18;9.28;;;;;;;8.35;85.32;98102.05;1761417;81;21492;-77
2021/10/17 06:34:29;;;;;;;14.38;9.00;;;;;;;8.38;85.09;98104.65;1761330;81;21038;-77
2021/10/17 06:36:56;;;;;;;10.85;8.20;;;;;;;8.43;85.13;98102.79;1761345;81;21002;-77
2021/10/17 06:39:23;;;;;;;13.03;8.58;;;;;;;8.46;85.01;98105.34;1761286;81;21077;-77
2021/10/17 06:41:50;;;;;;;13.20;9.05;;;;;;;8.49;84.46;98107.95;1761362;81;21414;-76
2021/10/17 06:44:19;;;;;;;15.38;8.80;;;;;;;8.51;84.23;98107.45;1760832;81;21018;-77
2021/10/17 06:46:50;;;;;;;11.75;8.23;;;;;;;8.52;83.89;98109.66;1761272;81;21022;-77
2021/10/17 06:49:17;;;;;;;14.70;8.85;;;;;;;8.53;83.52;98117.59;1761277;81;21045;-77
2021/10/17 06:51:45;;;;;;;11.12;8.28;;;;;;;8.56;83.19;98117.51;1761515;81;21033;-77
2021/10/17 06:54:12;;;;;;;14.05;9.48;;;;;;;8.56;82.10;98118.83;1761513;81;20989;-76
2021/10/17 06:56:38;;;;;;;12.78;7.15;;;;;;;8.60;82.83;98121.42;1761322;81;21435;-76
2021/10/17 06:59:05;;;;;;;11.90;7.17;;;;;;;8.55;79.65;98125.02;1761247;81;21012;-76
2021/10/17 07:01:34;;;;;;;11.00;7.37;;;;;;;8.60;81.11;98128.03;1761353;81;21558;-77
2021/10/17 07:04:00;;;;;;;11.18;6.10;;;;;;;8.60;81.34;98130.23;1761392;81;21005;-76
2021/10/17 07:06:29;;;;;;;9.40;5.80;;;;;;;8.61;80.29;98125.80;1760049;81;21038;-76
2021/10/17 07:08:57;;;;;;;11.70;7.40;;;;;;;8.63;76.73;98122.23;1760126;81;22102;-77
2021/10/17 07:11:25;;;;;;;13.22;6.65;;;;;;;8.68;78.87;98124.80;1759320;81;21017;-77
2021/10/17 07:14:00;;;;;;;11.88;6.90;;;;;;;8.74;79.18;98129.06;1760975;81;21037;-78
2021/10/17 07:16:28;;;;;;;8.45;5.12;;;;;;;8.77;79.29;98123.73;1761004;81;21030;-76
2021/10/17 07:18:54;;;;;;;11.03;6.08;;;;;;;8.80;76.93;98128.49;1761333;81;21068;-76
2021/10/17 07:21:21;;;;;;;9.80;6.05;;;;;;;8.85;77.07;98125.30;1761304;81;21022;-76
2021/10/17 07:23:48;;;;;;;9.80;6.08;;;;;;;8.90;76.62;98118.63;1761202;81;21029;-77
2021/10/17 07:26:14;;;;;;;9.73;6.80;;;;;;;8.94;78.02;98120.74;1761543;81;21008;-77
2021/10/17 07:28:41;;;;;;;8.33;4.83;;;;;;;8.98;78.23;98128.56;1761450;81;21057;-78
2021/10/17 07:31:08;;;;;;;7.75;5.45;;;;;;;9.01;75.26;98121.48;1761368;81;20982;-77
2021/10/17 07:33:42;;;;;;;;;;;;;;;9.06;76.88;98124.43;1748316;81;20982;-76
2021/10/17 07:36:11;;;;;;;16.35;10.10;;;;;;;9.09;76.99;98130.10;1761075;81;20090;-76
2021/10/17 07:38:38;;;;;;;18.42;10.43;;;;;;;9.13;76.53;98121.20;1761223;81;21077;-76
2021/10/17 07:41:06;;;;;;;17.12;10.88;;;;;;;9.18;76.66;98125.09;1761312;81;20986;-76
2021/10/17 07:43:32;;;;;;;13.40;7.87;;;;;;;9.22;76.43;98122.80;1761293;81;21014;-76
2021/10/17 07:46:02;;;;;;;9.85;6.42;;;;;;;9.28;76.67;98124.42;1735539;81;21471;-77
2021/10/17 07:48:31;;;;;;;7.80;5.15;;;;;;;9.33;76.55;98122.54;1761045;81;21014;-77
2021/10/17 07:50:58;;;;;;;12.05;6.40;;;;;;;9.37;75.90;98117.16;1761409;81;21042;-77
2021/10/17 07:53:26;;;;;;;11.48;7.17;;;;;;;9.42;76.02;98115.72;1761177;81;21448;-76
2021/10/17 07:55:53;;;;;;;11.30;6.25;;;;;;;9.48;75.88;98118.22;1761155;81;22128;-77
2021/10/17 07:58:21;;;;;;;9.10;5.83;;;;;;;9.55;75.80;98124.71;1761376;81;21069;-76
2021/10/17 08:00:50;;;;;;;10.95;6.17;;;;;;;9.58;75.37;98118.89;1760838;81;21006;-77
2021/10/17 08:03:34;;;;;;;11.73;6.78;;;;;;;9.64;74.97;98123.17;1761337;81;21042;-77
2021/10/17 08:06:18;;;;;;;9.53;6.40;;;;;;;9.70;75.29;98129.64;1760563;81;21018;-77
2021/10/17 08:08:44;;;;;;;9.50;6.65;;;;;;;9.78;75.13;98125.48;1761227;81;21132;-77
2021/10/17 08:11:11;;;;;;;11.35;6.92;;;;;;;9.83;74.83;98123.59;1761100;81;21025;-77
2021/10/17 08:13:38;;;;;;;10.55;6.08;;;;;;;9.89;74.43;98127.88;1761311;81;21058;-77
2021/10/17 08:16:05;;;;;;;13.20;6.62;;;;;;;9.96;74.08;98123.30;1761355;81;21037;-77
2021/10/17 08:18:33;;;;;;;12.03;7.22;;;;;;;10.01;73.08;98130.20;1760660;81;21499;-77
2021/10/17 08:21:02;;;;;;;11.22;6.92;;;;;;;10.06;73.70;98132.75;1762168;81;21014;-77
2021/10/17 08:23:28;;;;;;;13.58;8.75;;;;;;;10.12;73.25;98130.38;1769255;81;22114;-77
2021/10/17 08:25:55;;;;;;;13.45;8.65;;;;;;;10.17;72.99;98133.34;1769394;81;21029;-76
2021/10/17 08:28:23;;;;;;;12.13;8.63;;;;;;;10.25;73.11;98134.45;1769332;81;21057;-77
2021/10/17 08:30:51;;;;;;;16.05;9.60;;;;;;;10.29;72.45;98133.47;1769224;81;20985;-77
2021/10/17 08:33:19;;;;;;;15.00;9.70;;;;;;;10.37;73.33;98135.03;1769298;81;21051;-76
2021/10/17 08:35:45;;;;;;;12.85;9.33;;;;;;;10.46;72.68;98128.67;1769288;81;21464;-77
2021/10/17 08:38:14;;;;;;;10.58;7.62;;;;;;;10.52;72.08;98132.03;1769233;81;21435;-77
2021/10/17 08:40:56;;;;;;;17.67;9.30;;;;;;;10.60;71.53;98130.94;1769195;81;21410;-76
2021/10/17 08:43:24;;;;;;;18.05;10.25;;;;;;;10.65;72.08;98130.36;1768205;81;21041;-76
2021/10/17 08:45:55;;;;;;;15.20;8.90;;;;;;;10.69;72.11;98123.62;1768455;81;21450;-76
2021/10/17 08:48:32;;;;;;;14.73;9.08;;;;;;;10.74;70.87;98128.78;1769198;81;21041;-76
2021/10/17 08:51:01;;;;;;;14.73;9.20;;;;;;;10.81;70.08;98129.48;1769345;81;21016;-76
2021/10/17 08:53:29;;;;;;;16.82;8.83;;;;;;;10.86;71.33;98126.23;1767003;81;21412;-76
2021/10/17 08:56:00;;;;;;;14.38;9.18;;;;;;;10.90;70.66;98119.94;1739510;81;21045;-76
2021/10/17 08:58:28;;;;;;;12.93;8.95;;;;;;;10.95;70.32;98125.97;1769249;81;21057;-76
2021/10/17 09:00:59;;;;;;;18.17;9.85;;;;;;;11.00;69.44;98122.32;1769615;81;21032;-76
2021/10/17 09:03:33;;;;;;;16.40;8.95;;;;;;;11.03;70.00;98125.75;1766120;81;21049;-76
2021/10/17 09:06:22;;;;;;;18.32;10.95;;;;;;;11.07;70.17;98128.72;1738900;81;20998;-76
2021/10/17 09:09:10;;;;;;;17.95;10.55;;;;;;;11.15;70.43;98123.19;1766964;81;21009;-77
2021/10/17 09:11:45;;;;;;;20.20;10.98;;;;;;;11.26;69.50;98120.22;1769520;81;20971;-76
2021/10/17 09:14:18;;;;;;;18.02;11.05;;;;;;;11.36;70.05;98122.12;1769425;81;21415;-76
2021/10/17 09:16:48;;;;;;;15.93;10.70;;;;;;;11.44;70.49;98117.90;1769522;81;20981;-76
2021/10/17 09:19:26;;;;;;;17.02;11.38;;;;;;;11.53;70.35;98115.41;1769342;81;21020;-76
2021/10/17 09:22:08;;;;;;;73.37;41.55;;;;;;;11.58;69.84;98119.66;1769178;81;20978;-76
2021/10/17 09:24:45;;;;;;;20.30;13.83;;;;;;;11.66;69.64;98122.07;1769347;81;21384;-76
2021/10/17 09:27:18;;;;;;;15.85;10.50;;;;;;;11.76;69.93;98112.04;1738913;81;21012;-76
2021/10/17 09:29:52;;;;;;;13.08;9.55;;;;;;;11.84;69.10;98112.63;1769334;81;21077;-77
2021/10/17 09:32:26;;;;;;;15.23;10.40;;;;;;;11.95;69.43;98111.41;1769515;81;21433;-77
2021/10/17 09:34:58;;;;;;;;;;;;;;;12.03;69.48;98113.84;1771816;81;21680;-77
2021/10/17 09:37:41;;;;;;;13.50;9.60;;;;;;;12.09;68.64;98116.31;1769655;81;20405;-77
2021/10/17 09:40:32;;;;;;;13.95;9.25;;;;;;;12.20;69.00;98115.95;1769164;81;21463;-76
2021/10/17 09:43:20;;;;;;;14.28;8.63;;;;;;;12.26;68.11;98112.59;1767403;81;21037;-76
2021/10/17 09:45:42;;;;;;;13.95;8.80;;;;;;;12.31;67.96;98108.47;1769069;81;21064;-76
2021/10/17 09:48:10;;;;;;;12.53;9.58;;;;;;;12.41;68.00;98111.66;1769391;81;20974;-77
2021/10/17 09:50:36;;;;;;;11.63;8.25;;;;;;;12.53;68.89;98105.04;1769502;81;20998;-76
2021/10/17 09:53:11;;;;;;;12.28;7.85;;;;;;;12.64;68.59;98106.88;1769616;81;21049;-76
2021/10/17 09:55:38;;;;;;;13.85;9.30;;;;;;;12.75;67.79;98103.80;1769374;81;21019;-77
2021/10/17 09:58:06;;;;;;;15.03;8.48;;;;;;;12.88;67.28;98098.89;1769421;81;21489;-77
2021/10/17 10:00:38;;;;;;;13.80;8.10;;;;;;;13.03;67.39;98094.80;1769600;81;21053;-76
2021/10/17 10:03:08;;;;;;;11.30;7.90;;;;;;;13.19;66.80;98094.20;1769542;81;21045;-77
2021/10/17 10:05:36;;;;;;;10.63;7.83;;;;;;;13.32;65.66;98083.48;1769664;81;21077;-77
2021/10/17 10:08:06;;;;;;;11.05;8.20;;;;;;;13.43;64.88;98089.73;1769550;81;20993;-77
2021/10/17 10:10:34;;;;;;;11.80;8.15;;;;;;;13.56;65.33;98095.45;1769492;81;21009;-77
2021/10/17 10:13:04;;;;;;;11.20;7.55;;;;;;;13.70;64.49;98082.05;1769608;81;21009;-77
2021/10/17 10:15:32;;;;;;;12.82;9.00;;;;;;;13.83;64.99;98077.08;1769576;81;21045;-77
2021/10/17 10:18:01;;;;;;;16.20;8.93;;;;;;;13.94;63.95;98083.27;1769624;81;21002;-77
2021/10/17 10:20:27;;;;;;;11.80;7.55;;;;;;;14.02;64.14;98087.83;1769593;81;21052;-77
2021/10/17 10:22:55;;;;;;;11.43;7.12;;;;;;;14.13;63.14;98082.89;1769251;81;21006;-77
2021/10/17 10:25:22;;;;;;;9.58;6.85;;;;;;;14.39;63.73;98080.92;1769459;81;20986;-77
2021/10/17 10:27:49;;;;;;;7.95;6.10;;;;;;;15.28;60.11;98076.09;1769766;81;21403;-76
2021/10/17 10:30:24;;;;;;;7.17;6.33;;;;;;;16.34;58.71;98069.58;1769522;81;21026;-77
2021/10/17 10:33:17;;;;;;;8.55;6.30;;;;;;;16.85;57.23;98063.34;1769427;81;21049;-77
2021/10/17 10:36:13;;;;;;;8.50;6.33;;;;;;;17.15;54.18;98058.15;1769500;81;21479;-77
2021/10/17 10:39:03;;;;;;;9.63;6.60;;;;;;;17.70;55.73;98055.58;1769570;81;21014;-76
2021/10/17 10:41:31;;;;;;;10.43;6.42;;;;;;;18.64;55.52;98051.81;1769595;81;21065;-75
2021/10/17 10:44:17;;;;;;;8.40;6.72;;;;;;;19.94;54.86;98049.00;1769368;81;21029;-76
2021/10/17 10:46:44;;;;;;;9.23;6.30;;;;;;;21.01;51.89;98044.38;1769508;81;21510;-77
2021/10/17 10:49:12;;;;;;;7.00;6.03;;;;;;;21.35;40.57;98031.64;1769553;81;21037;-77
2021/10/17 10:51:46;;;;;;;7.85;5.65;;;;;;;22.26;47.01;98034.75;1769485;81;21408;-77
2021/10/17 10:54:31;;;;;;;8.23;6.80;;;;;;;22.76;46.58;98028.73;1769596;81;21017;-77
2021/10/17 10:56:58;;;;;;;11.28;9.28;;;;;;;20.95;46.02;98027.31;1765750;81;21041;-77
2021/10/17 10:59:29;;;;;;;6.40;5.60;;;;;;;20.95;46.02;98027.31;1769623;81;21036;-77
2021/10/17 11:02:14;;;;;;;9.38;6.45;;;;;;;20.08;45.86;98034.63;1761992;81;21069;-76
2021/10/17 11:04:45;;;;;;;7.10;5.50;;;;;;;20.08;45.86;98034.63;1768618;81;21002;-78
2021/10/17 11:07:24;;;;;;;10.63;4.85;;;;;;;19.42;46.19;98032.70;1769477;81;21450;-76
2021/10/17 11:09:54;;;;;;;6.67;4.80;;;;;;;20.79;43.29;98032.89;1769594;81;21041;-77
2021/10/17 11:12:45;;;;;;;6.12;5.03;;;;;;;22.24;40.33;98031.80;1769515;81;21040;-77
2021/10/17 11:15:15;;;;;;;5.12;4.20;;;;;;;23.37;40.34;98027.98;1769424;81;21010;-75
2021/10/17 11:17:54;;;;;;;5.72;4.58;;;;;;;23.67;33.68;98020.51;1769878;81;21425;-77
2021/10/17 11:20:24;;;;;;;4.97;4.45;;;;;;;23.40;38.04;98006.95;1769419;81;21013;-77
2021/10/17 11:22:51;;;;;;;4.97;4.12;;;;;;;22.67;35.33;98015.48;1765478;81;21081;-77
2021/10/17 11:25:20;;;;;;;5.83;4.47;;;;;;;22.50;34.93;98013.57;1761386;81;21002;-77
2021/10/17 11:27:49;;;;;;;5.30;4.20;;;;;;;22.65;37.52;98014.72;1761079;81;21463;-77
2021/10/17 11:30:32;;;;;;;6.22;4.30;;;;;;;22.27;37.98;98012.68;1761360;81;21509;-75
2021/10/17 11:33:04;;;;;;;;;;;;;;;22.09;38.11;98008.22;1763696;81;20999;-75
2021/10/17 11:35:36;;;;;;;5.95;4.42;;;;;;;21.46;39.07;98006.09;1761409;81;20162;-75
2021/10/17 11:38:06;;;;;;;5.33;4.10;;;;;;;20.99;39.86;98006.39;1761439;81;20994;-76
2021/10/17 11:40:35;;;;;;;5.30;3.77;;;;;;;20.47;39.53;98015.35;1761320;81;21077;-77